Time;durP1;ratioP1;P1;durP2;ratioP2;P2;SDS_P1;SDS_P2;PMS_P1;PMS_P2;Temp;Humidity;BMP_temperature;BMP_pressure;BME280_temperature;BME280_humidity;BME280_pressure;Samples;Min_cycle;Max_cycle;Signal;HPM_P1;HPM_P2
2022/11/27 00:01:19;;;;;;;38.50;12.43;;;6.00;99.90;;;;;;5098893;28;20080;-70
2022/11/27 00:03:45;;;;;;;33.38;13.00;;;6.00;99.90;;;;;;5099310;28;20042;-71
2022/11/27 00:06:13;;;;;;;46.13;12.43;;;6.00;99.90;;;;;;5098912;28;20079;-69
2022/11/27 00:08:38;;;;;;;36.90;12.88;;;5.90;99.90;;;;;;5098722;28;20118;-70
2022/11/27 00:11:09;;;;;;;41.50;13.13;;;5.90;99.90;;;;;;5099707;28;20027;-70
2022/11/27 00:13:35;;;;;;;34.38;12.82;;;5.90;99.90;;;;;;5098734;28;20052;-69
2022/11/27 00:16:01;;;;;;;38.13;12.60;;;5.90;99.90;;;;;;5098928;28;20031;-71
2022/11/27 00:18:27;;;;;;;37.42;12.73;;;5.90;99.90;;;;;;5099407;28;20024;-69
2022/11/27 00:20:52;;;;;;;34.03;12.38;;;5.90;99.90;;;;;;5100000;28;20546;-70
2022/11/27 00:23:18;;;;;;;34.45;13.23;;;5.80;99.90;;;;;;5101735;28;20056;-70
2022/11/27 00:25:53;;;;;;;32.10;11.48;;;5.80;99.90;;;;;;5101772;28;20028;-70
2022/11/27 00:28:19;;;;;;;37.78;12.80;;;5.80;99.90;;;;;;5103497;28;20044;-70
2022/11/27 00:30:44;;;;;;;36.08;13.32;;;5.80;99.90;;;;;;5101560;28;20048;-70
2022/11/27 00:33:10;;;;;;;39.95;13.07;;;5.80;99.90;;;;;;5103201;28;20073;-71
2022/11/27 00:35:37;;;;;;;31.55;12.07;;;5.80;99.90;;;;;;5103394;28;20032;-71
2022/11/27 00:38:03;;;;;;;35.80;12.85;;;5.80;99.90;;;;;;5103652;28;20032;-70
2022/11/27 00:40:30;;;;;;;42.15;13.23;;;5.80;99.90;;;;;;5103653;28;20013;-71
2022/11/27 00:42:55;;;;;;;48.03;13.80;;;5.80;99.90;;;;;;5103289;28;20035;-70
2022/11/27 00:45:21;;;;;;;38.88;13.07;;;5.80;99.90;;;;;;5101656;28;20020;-70
2022/11/27 00:47:47;;;;;;;43.78;13.32;;;5.90;99.90;;;;;;5102860;28;20035;-69
2022/11/27 00:50:13;;;;;;;39.20;12.93;;;5.80;99.90;;;;;;5102538;28;20012;-70
2022/11/27 00:52:39;;;;;;;35.88;12.60;;;5.80;99.90;;;;;;5102619;28;20115;-70
2022/11/27 00:55:05;;;;;;;27.52;11.80;;;5.80;99.90;;;;;;5103081;28;20028;-72
2022/11/27 00:57:31;;;;;;;32.45;11.27;;;5.90;99.90;;;;;;5102854;28;20479;-70
2022/11/27 00:59:57;;;;;;;26.95;11.02;;;5.90;99.90;;;;;;5102756;28;20042;-69
2022/11/27 01:02:23;;;;;;;36.17;12.15;;;5.80;99.90;;;;;;5102502;28;20836;-70
2022/11/27 01:04:48;;;;;;;38.03;11.15;;;5.90;99.90;;;;;;5103044;28;20106;-70
2022/11/27 01:07:15;;;;;;;32.55;10.93;;;5.90;99.90;;;;;;5102829;28;20168;-70
2022/11/27 01:09:40;;;;;;;30.08;11.45;;;5.90;99.90;;;;;;5102157;28;20020;-71
2022/11/27 01:12:07;;;;;;;31.55;11.65;;;5.90;99.90;;;;;;5102339;28;20020;-71
2022/11/27 01:14:34;;;;;;;31.67;11.43;;;5.80;99.90;;;;;;5102693;28;20084;-70
2022/11/27 01:16:59;;;;;;;33.45;11.02;;;5.90;99.90;;;;;;5101962;28;20045;-71
2022/11/27 01:19:25;;;;;;;26.80;11.23;;;5.90;99.90;;;;;;5102736;28;20088;-71
2022/11/27 01:21:51;;;;;;;36.10;11.32;;;5.80;99.90;;;;;;5102390;28;20084;-71
2022/11/27 01:24:17;;;;;;;32.92;11.05;;;5.80;99.90;;;;;;5101765;28;20484;-71
2022/11/27 01:26:43;;;;;;;29.92;10.60;;;5.80;99.90;;;;;;5102518;28;20094;-70
2022/11/27 01:29:09;;;;;;;32.30;11.10;;;5.90;99.90;;;;;;5101679;28;20081;-70
2022/11/27 01:31:34;;;;;;;31.73;10.45;;;5.80;99.90;;;;;;5101836;28;20028;-71
2022/11/27 01:34:05;;;;;;;38.38;11.15;;;5.80;99.90;;;;;;5102175;28;20136;-71
2022/11/27 01:36:33;;;;;;;33.92;10.73;;;5.80;99.90;;;;;;5101909;28;20054;-71
2022/11/27 01:39:00;;;;;;;33.63;9.98;;;5.80;99.90;;;;;;5101388;28;20035;-70
2022/11/27 01:41:32;;;;;;;22.30;9.30;;;5.90;99.90;;;;;;5101566;28;20115;-70
2022/11/27 01:44:23;;;;;;;27.58;9.50;;;5.80;99.90;;;;;;5101768;28;20047;-71
2022/11/27 01:47:05;;;;;;;22.10;8.55;;;5.70;99.90;;;;;;5101468;28;20083;-70
2022/11/27 01:49:52;;;;;;;28.48;8.50;;;5.80;99.90;;;;;;5102028;28;20036;-70
2022/11/27 01:52:26;;;;;;;27.42;8.55;;;5.80;99.90;;;;;;5101082;28;20060;-69
2022/11/27 01:55:00;;;;;;;22.45;8.70;;;5.80;99.90;;;;;;5101755;28;20024;-70
2022/11/27 01:57:34;;;;;;;24.92;8.85;;;5.80;99.90;;;;;;5100748;28;20522;-70
2022/11/27 02:00:01;;;;;;;24.95;9.25;;;5.80;99.90;;;;;;5101285;28;20075;-70
2022/11/27 02:02:27;;;;;;;26.58;9.02;;;5.80;99.90;;;;;;5101662;28;20028;-70
2022/11/27 02:04:53;;;;;;;32.72;10.30;;;5.70;99.90;;;;;;5101357;28;20031;-70
2022/11/27 02:07:19;;;;;;;28.80;9.60;;;5.80;99.90;;;;;;5101596;28;20384;-71
2022/11/27 02:09:45;;;;;;;27.33;9.45;;;5.70;99.90;;;;;;5101300;28;20080;-71
2022/11/27 02:12:39;;;;;;;23.10;8.82;;;5.80;99.90;;;;;;5101214;28;20160;-70
2022/11/27 02:15:09;;;;;;;20.67;9.38;;;5.70;99.90;;;;;;5101310;28;20105;-69
2022/11/27 02:17:50;;;;;;;21.05;8.60;;;5.70;99.90;;;;;;5100906;28;20020;-71
2022/11/27 02:20:35;;;;;;;24.92;8.32;;;5.60;99.90;;;;;;5100717;28;20031;-70
2022/11/27 02:23:04;;;;;;;25.30;8.85;;;5.60;99.90;;;;;;5101271;28;20047;-70
2022/11/27 02:26:19;;;;;;;28.85;8.90;;;5.60;99.90;;;;;;5098982;28;20055;-70
2022/11/27 02:29:01;;;;;;;23.38;8.52;;;5.60;99.90;;;;;;5057377;28;20028;-70
2022/11/27 02:31:45;;;;;;;40.47;9.32;;;5.60;99.90;;;;;;5100635;28;20020;-71
2022/11/27 02:34:26;;;;;;;27.58;9.85;;;5.60;99.90;;;;;;5100493;28;20464;-69
2022/11/27 02:37:10;;;;;;;23.33;9.48;;;5.50;99.90;;;;;;5100925;28;20055;-70
2022/11/27 02:39:56;;;;;;;27.42;8.65;;;5.50;99.90;;;;;;5100337;28;20031;-71
2022/11/27 02:42:22;;;;;;;27.55;9.57;;;5.50;99.90;;;;;;5098752;28;20057;-70
2022/11/27 02:45:15;;;;;;;26.50;8.63;;;5.50;99.90;;;;;;5099628;28;20582;-70
2022/11/27 02:47:45;;;;;;;23.80;9.27;;;5.50;99.90;;;;;;5093526;28;20032;-70
2022/11/27 02:50:18;;;;;;;25.60;9.25;;;5.50;99.90;;;;;;5100732;28;20031;-70
2022/11/27 02:52:46;;;;;;;20.47;9.40;;;5.40;99.90;;;;;;5100059;28;20710;-70
2022/11/27 02:55:15;;;;;;;26.90;10.32;;;5.40;99.90;;;;;;5099945;28;20284;-70
2022/11/27 02:57:43;;;;;;;33.00;10.23;;;5.50;99.90;;;;;;5100479;28;20055;-71
2022/11/27 03:00:09;;;;;;;29.45;9.90;;;5.40;99.90;;;;;;5100077;28;20127;-70
2022/11/27 03:02:41;;;;;;;32.45;10.35;;;5.40;99.90;;;;;;5099976;28;20032;-71
2022/11/27 03:05:12;;;;;;;31.23;9.50;;;5.40;99.90;;;;;;5099595;28;20028;-71
2022/11/27 03:07:48;;;;;;;31.23;9.88;;;5.40;99.90;;;;;;5099833;28;20028;-72
2022/11/27 03:10:30;;;;;;;24.45;9.52;;;5.40;99.90;;;;;;5100053;28;20473;-70
2022/11/27 03:12:57;;;;;;;29.70;9.57;;;5.30;99.90;;;;;;5100581;28;20016;-70
2022/11/27 03:15:26;;;;;;;26.40;9.68;;;5.30;99.90;;;;;;5099757;28;20028;-71
2022/11/27 03:18:08;;;;;;;26.38;10.02;;;5.30;99.90;;;;;;5100433;28;20472;-70
2022/11/27 03:20:39;;;;;;;32.97;10.55;;;5.30;99.90;;;;;;5100646;28;20058;-71
2022/11/27 03:23:06;;;;;;;26.63;11.07;;;5.20;99.90;;;;;;5099235;28;20048;-70
2022/11/27 03:25:32;;;;;;;26.65;9.63;;;5.20;99.90;;;;;;5100241;28;20048;-71
2022/11/27 03:28:04;;;;;;;31.60;10.30;;;5.10;99.90;;;;;;5098446;28;20029;-71
2022/11/27 03:30:31;;;;;;;27.95;9.95;;;5.10;99.90;;;;;;5099651;28;20020;-70
2022/11/27 03:32:58;;;;;;;31.17;11.10;;;5.00;99.90;;;;;;5099486;28;20036;-71
2022/11/27 03:35:25;;;;;;;34.00;11.60;;;5.10;99.90;;;;;;5099885;28;20050;-70
2022/11/27 03:37:51;;;;;;;26.20;10.88;;;5.00;99.90;;;;;;5099584;28;20046;-70
2022/11/27 03:40:18;;;;;;;29.40;9.88;;;5.00;99.90;;;;;;5099753;28;20016;-70
2022/11/27 03:43:18;;;;;;;29.75;11.15;;;5.00;99.90;;;;;;5099578;28;20024;-70
2022/11/27 03:45:52;;;;;;;25.38;10.27;;;4.90;99.90;;;;;;5085164;28;20036;-70
2022/11/27 03:48:36;;;;;;;32.38;12.13;;;4.90;99.90;;;;;;5099497;28;20024;-71
2022/11/27 03:51:02;;;;;;;;;;;4.90;99.90;;;;;;5099260;28;20036;-71
2022/11/27 03:53:52;;;;;;;29.10;11.57;;;4.80;99.90;;;;;;5099743;28;19904;-69
2022/11/27 03:56:56;;;;;;;34.83;11.18;;;4.80;99.90;;;;;;5099403;28;20088;-71
2022/11/27 03:59:29;;;;;;;28.45;12.77;;;4.80;99.90;;;;;;5097672;28;20123;-69
2022/11/27 04:01:54;;;;;;;35.15;13.10;;;4.80;99.90;;;;;;5098062;28;20020;-71
2022/11/27 04:04:20;;;;;;;36.28;13.60;;;4.80;99.90;;;;;;5100280;28;20040;-70
2022/11/27 04:06:45;;;;;;;40.30;13.98;;;4.70;99.90;;;;;;5099485;28;20024;-71
2022/11/27 04:09:11;;;;;;;38.97;14.68;;;4.70;99.90;;;;;;5100129;28;20131;-70
2022/11/27 04:11:37;;;;;;;42.85;16.55;;;4.70;99.90;;;;;;5099437;28;20132;-72
2022/11/27 04:14:02;;;;;;;38.20;16.08;;;4.70;99.90;;;;;;5098999;28;20024;-71
2022/11/27 04:16:28;;;;;;;35.75;17.17;;;4.60;99.90;;;;;;5098063;28;20023;-71
2022/11/27 04:18:54;;;;;;;40.13;15.45;;;4.60;99.90;;;;;;5099473;28;20115;-70
2022/11/27 04:21:26;;;;;;;34.78;16.05;;;4.60;99.90;;;;;;5096834;28;20111;-71
2022/11/27 04:23:51;;;;;;;40.17;16.27;;;4.60;99.90;;;;;;5100263;28;20062;-70
2022/11/27 04:26:17;;;;;;;48.25;17.70;;;4.60;99.90;;;;;;5100405;28;20031;-70
2022/11/27 04:28:42;;;;;;;38.97;15.88;;;4.60;99.90;;;;;;5099208;28;20046;-70
2022/11/27 04:31:20;;;;;;;41.10;18.13;;;4.50;99.90;;;;;;5100341;28;20051;-70
2022/11/27 04:33:46;;;;;;;39.85;17.08;;;4.50;99.90;;;;;;5099928;28;20024;-71
2022/11/27 04:36:11;;;;;;;39.55;15.80;;;4.50;99.90;;;;;;5100438;28;20078;-70
2022/11/27 04:38:37;;;;;;;42.15;17.02;;;4.40;99.90;;;;;;5100751;28;20035;-70
2022/11/27 04:41:03;;;;;;;46.35;17.90;;;4.40;99.90;;;;;;5100521;28;20024;-70
2022/11/27 04:43:29;;;;;;;45.80;16.65;;;4.40;99.90;;;;;;5100618;28;20032;-70
2022/11/27 04:45:54;;;;;;;43.03;16.63;;;4.50;99.90;;;;;;5100593;28;20024;-70
2022/11/27 04:48:20;;;;;;;50.30;16.67;;;4.30;99.90;;;;;;5100367;28;20487;-70
2022/11/27 04:50:45;;;;;;;47.20;18.42;;;4.30;99.90;;;;;;5100257;28;20031;-71
2022/11/27 04:53:12;;;;;;;44.58;18.20;;;4.30;99.90;;;;;;5100138;28;20031;-71
2022/11/27 04:55:37;;;;;;;46.88;18.30;;;4.30;99.90;;;;;;5100461;28;20376;-72
2022/11/27 04:58:03;;;;;;;42.17;18.63;;;4.20;99.90;;;;;;5100537;28;20021;-72
2022/11/27 05:00:29;;;;;;;47.92;16.90;;;4.20;99.90;;;;;;5099888;28;20028;-73
2022/11/27 05:02:54;;;;;;;40.15;17.77;;;4.20;99.90;;;;;;5100609;28;20174;-70
2022/11/27 05:05:20;;;;;;;44.53;17.33;;;4.30;99.90;;;;;;5100206;28;20028;-71
2022/11/27 05:07:45;;;;;;;38.97;16.88;;;4.30;99.90;;;;;;5100148;28;20024;-70
2022/11/27 05:10:11;;;;;;;43.63;17.08;;;4.20;99.90;;;;;;5100959;28;20028;-71
2022/11/27 05:12:37;;;;;;;49.70;18.23;;;4.20;99.90;;;;;;5103845;28;20035;-71
2022/11/27 05:15:04;;;;;;;45.70;17.80;;;4.20;99.90;;;;;;5103848;28;20016;-71
2022/11/27 05:17:29;;;;;;;41.22;16.27;;;4.20;99.90;;;;;;5103699;28;20127;-72
2022/11/27 05:19:55;;;;;;;39.35;16.20;;;4.20;99.90;;;;;;5103768;28;20444;-72
2022/11/27 05:22:20;;;;;;;41.22;16.33;;;4.10;99.90;;;;;;5103231;28;20167;-71
2022/11/27 05:24:46;;;;;;;39.20;17.38;;;4.10;99.90;;;;;;5104065;28;20036;-70
2022/11/27 05:27:11;;;;;;;49.35;16.58;;;4.00;99.90;;;;;;5103868;28;20081;-72
2022/11/27 05:29:39;;;;;;;41.88;16.98;;;4.00;99.90;;;;;;5103745;28;20464;-71
2022/11/27 05:32:05;;;;;;;43.65;18.55;;;3.90;99.90;;;;;;5104792;28;20028;-72
2022/11/27 05:34:31;;;;;;;43.90;18.13;;;3.90;99.90;;;;;;5103365;28;20020;-72
2022/11/27 05:36:57;;;;;;;36.03;16.50;;;3.90;99.90;;;;;;5103824;28;20036;-71
2022/11/27 05:39:23;;;;;;;51.30;17.88;;;3.80;99.90;;;;;;5102298;28;20016;-71
2022/11/27 05:41:49;;;;;;;46.05;17.33;;;3.80;99.90;;;;;;5099964;28;20028;-72
2022/11/27 05:44:15;;;;;;;46.78;16.48;;;3.80;99.90;;;;;;5102553;28;20043;-71
2022/11/27 05:46:44;;;;;;;38.42;16.70;;;3.80;99.90;;;;;;5103206;28;20016;-72
2022/11/27 05:49:17;;;;;;;40.85;16.17;;;3.80;99.90;;;;;;5101078;28;20106;-71
2022/11/27 05:51:43;;;;;;;45.80;17.40;;;3.80;99.90;;;;;;5103095;28;20461;-71
2022/11/27 05:54:09;;;;;;;39.83;17.42;;;3.70;99.90;;;;;;5103281;28;20424;-71
2022/11/27 05:56:35;;;;;;;39.22;17.38;;;3.70;99.90;;;;;;5102548;28;21059;-72
2022/11/27 05:59:01;;;;;;;37.70;17.05;;;3.60;99.90;;;;;;5102709;28;20038;-72
2022/11/27 06:01:27;;;;;;;48.80;17.20;;;3.60;99.90;;;;;;5103241;28;20032;-71
2022/11/27 06:03:52;;;;;;;46.55;17.30;;;3.60;99.90;;;;;;5102825;28;20542;-71
2022/11/27 06:06:19;;;;;;;36.53;14.30;;;3.60;99.90;;;;;;5101632;28;20088;-72
2022/11/27 06:08:46;;;;;;;41.22;15.27;;;3.50;99.90;;;;;;5101232;28;20107;-71
2022/11/27 06:11:14;;;;;;;41.10;16.23;;;3.50;99.90;;;;;;5101312;28;20035;-72
2022/11/27 06:13:41;;;;;;;43.45;16.88;;;3.50;99.90;;;;;;5102451;28;20032;-73
2022/11/27 06:16:18;;;;;;;42.15;16.63;;;3.50;99.90;;;;;;5101335;28;20080;-72
2022/11/27 06:18:44;;;;;;;46.40;17.10;;;3.50;99.90;;;;;;5098644;28;20032;-71
2022/11/27 06:21:14;;;;;;;42.22;17.15;;;3.60;99.90;;;;;;5100649;28;20031;-71
2022/11/27 06:23:41;;;;;;;36.78;15.70;;;3.50;99.90;;;;;;5102117;28;20055;-72
2022/11/27 06:26:27;;;;;;;45.25;17.27;;;3.50;99.90;;;;;;5101291;28;20136;-72
2022/11/27 06:28:55;;;;;;;48.65;17.38;;;3.50;99.90;;;;;;5101807;28;20032;-73
2022/11/27 06:31:23;;;;;;;47.38;17.55;;;3.50;99.90;;;;;;5102102;28;20032;-71
2022/11/27 06:33:51;;;;;;;40.78;16.23;;;3.50;99.90;;;;;;5101873;28;20036;-71
2022/11/27 06:36:18;;;;;;;39.40;15.93;;;3.50;99.90;;;;;;5102103;28;20056;-71
2022/11/27 06:38:45;;;;;;;48.08;16.55;;;3.50;99.90;;;;;;5102030;28;20030;-72
2022/11/27 06:41:23;;;;;;;32.95;14.80;;;3.50;99.90;;;;;;5100467;28;20048;-71
2022/11/27 06:43:49;;;;;;;36.08;15.80;;;3.40;99.90;;;;;;5098919;28;20051;-71
2022/11/27 06:46:20;;;;;;;36.28;15.82;;;3.40;99.90;;;;;;5101602;28;20020;-72
2022/11/27 06:48:48;;;;;;;36.75;15.88;;;3.50;99.90;;;;;;5099766;28;20132;-73
2022/11/27 06:51:20;;;;;;;44.53;18.23;;;3.40;99.90;;;;;;5100911;28;20146;-71
2022/11/27 06:53:45;;;;;;;40.05;16.92;;;3.30;99.90;;;;;;5099714;28;20048;-71
2022/11/27 06:56:14;;;;;;;38.60;15.52;;;3.30;99.90;;;;;;5101586;28;20020;-72
2022/11/27 06:58:40;;;;;;;49.20;17.40;;;3.30;99.90;;;;;;5100308;28;20067;-71
2022/11/27 07:01:09;;;;;;;39.22;15.93;;;3.30;99.90;;;;;;5100332;28;20047;-71
2022/11/27 07:03:35;;;;;;;38.08;17.50;;;3.30;99.90;;;;;;5099314;28;20040;-73
2022/11/27 07:06:03;;;;;;;42.00;16.92;;;3.30;99.90;;;;;;5096661;28;20032;-73
2022/11/27 07:08:29;;;;;;;44.33;17.25;;;3.20;99.90;;;;;;5096975;28;20023;-74
2022/11/27 07:11:03;;;;;;;40.88;17.90;;;3.20;99.90;;;;;;5099984;28;20032;-72
2022/11/27 07:13:29;;;;;;;42.63;18.65;;;3.20;99.90;;;;;;5099940;28;20034;-74
2022/11/27 07:16:00;;;;;;;43.33;18.02;;;3.20;99.90;;;;;;5101205;28;20021;-75
2022/11/27 07:18:26;;;;;;;33.63;16.45;;;3.20;99.90;;;;;;5100221;28;20043;-73
2022/11/27 07:20:52;;;;;;;45.88;17.80;;;3.20;99.90;;;;;;5101086;28;20039;-74
2022/11/27 07:23:18;;;;;;;41.70;16.98;;;3.20;99.90;;;;;;5099044;28;21966;-74
2022/11/27 07:25:44;;;;;;;36.30;17.58;;;3.20;99.90;;;;;;5100195;28;20031;-74
2022/11/27 07:28:10;;;;;;;38.28;16.48;;;3.20;99.90;;;;;;5095879;28;20068;-72
2022/11/27 07:30:37;;;;;;;43.13;17.63;;;3.20;99.90;;;;;;5099275;28;20050;-72
2022/11/27 07:33:03;;;;;;;37.58;16.50;;;3.20;99.90;;;;;;5098537;28;20081;-73
2022/11/27 07:35:28;;;;;;;36.55;15.65;;;3.20;99.90;;;;;;5099691;28;20071;-73
2022/11/27 07:37:54;;;;;;;35.20;16.45;;;3.30;99.90;;;;;;5101400;28;20045;-75
2022/11/27 07:40:20;;;;;;;41.97;17.08;;;3.30;99.90;;;;;;5101842;28;20119;-73
2022/11/27 07:42:46;;;;;;;39.10;17.13;;;3.40;99.90;;;;;;5100405;28;20093;-74
2022/11/27 07:45:12;;;;;;;33.13;15.90;;;3.30;99.90;;;;;;5100810;28;20099;-74
2022/11/27 07:47:38;;;;;;;41.55;17.27;;;3.30;99.90;;;;;;5100943;28;20107;-73
2022/11/27 07:50:07;;;;;;;43.03;17.08;;;3.30;99.90;;;;;;5098783;28;20078;-73
2022/11/27 07:52:34;;;;;;;34.03;16.02;;;3.40;99.90;;;;;;5100818;28;20081;-74
2022/11/27 07:55:00;;;;;;;42.00;16.33;;;3.50;99.90;;;;;;5099450;28;20439;-74
2022/11/27 07:57:27;;;;;;;32.33;15.07;;;3.50;99.90;;;;;;5099211;28;20036;-74
2022/11/27 07:59:53;;;;;;;40.17;15.90;;;3.60;99.90;;;;;;5100015;28;20024;-73
2022/11/27 08:02:18;;;;;;;39.22;16.40;;;3.70;99.90;;;;;;5096819;28;20035;-73
2022/11/27 08:04:44;;;;;;;40.80;17.30;;;3.70;99.90;;;;;;5100829;28;20035;-74
2022/11/27 08:07:10;;;;;;;32.75;14.60;;;3.70;99.90;;;;;;5100827;28;20370;-73
2022/11/27 08:09:42;;;;;;;37.25;14.98;;;3.70;99.90;;;;;;5099119;28;20157;-75
2022/11/27 08:12:08;;;;;;;38.72;14.52;;;3.60;99.90;;;;;;5097800;28;20040;-75
2022/11/27 08:14:34;;;;;;;38.80;16.13;;;3.50;99.90;;;;;;5100846;28;20046;-74
2022/11/27 08:16:59;;;;;;;40.65;16.65;;;3.50;99.90;;;;;;5099840;28;20375;-75
2022/11/27 08:19:25;;;;;;;32.83;15.05;;;3.60;99.90;;;;;;5100925;28;20020;-73
2022/11/27 08:21:50;;;;;;;39.53;15.73;;;3.50;99.90;;;;;;5095674;28;20101;-74
2022/11/27 08:24:16;;;;;;;35.83;15.15;;;3.50;99.90;;;;;;5097232;28;20055;-74
2022/11/27 08:26:42;;;;;;;38.63;16.23;;;3.50;99.90;;;;;;5098254;28;20048;-73
2022/11/27 08:29:11;;;;;;;35.78;15.52;;;3.60;99.90;;;;;;5100137;28;20048;-73
2022/11/27 08:31:37;;;;;;;37.67;16.45;;;3.60;99.90;;;;;;5097086;28;20017;-73
2022/11/27 08:34:03;;;;;;;41.00;16.67;;;3.70;99.90;;;;;;5098843;28;20024;-74
2022/11/27 08:36:28;;;;;;;39.78;17.40;;;3.70;99.90;;;;;;5098802;28;20020;-73
2022/11/27 08:38:54;;;;;;;36.15;16.38;;;3.80;99.90;;;;;;5099812;28;20044;-73
2022/11/27 08:41:21;;;;;;;41.92;17.50;;;3.70;99.90;;;;;;5099934;28;20899;-72
2022/11/27 08:43:46;;;;;;;42.05;17.63;;;3.70;99.90;;;;;;5093526;28;20336;-73
2022/11/27 08:46:12;;;;;;;38.78;16.35;;;3.70;99.90;;;;;;5101780;28;20047;-74
2022/11/27 08:48:38;;;;;;;39.53;16.52;;;3.70;99.90;;;;;;5102336;28;20057;-71
2022/11/27 08:51:10;;;;;;;36.25;17.20;;;3.60;99.90;;;;;;5104384;28;20024;-73
2022/11/27 08:53:36;;;;;;;39.20;16.73;;;3.60;99.90;;;;;;5102381;28;20050;-73
2022/11/27 08:56:15;;;;;;;35.05;16.35;;;3.60;99.90;;;;;;5102769;28;20027;-74
2022/11/27 08:58:42;;;;;;;33.55;15.63;;;3.70;99.90;;;;;;5102701;28;20036;-74
2022/11/27 09:01:13;;;;;;;31.80;15.80;;;3.80;99.90;;;;;;5104294;28;20036;-74
2022/11/27 09:03:39;;;;;;;41.60;16.40;;;3.90;99.90;;;;;;5102330;28;20100;-74
2022/11/27 09:06:10;;;;;;;36.80;15.68;;;4.10;99.90;;;;;;5103729;28;20044;-74
2022/11/27 09:08:38;;;;;;;41.00;15.60;;;4.20;99.90;;;;;;5102430;28;20020;-71
2022/11/27 09:11:04;;;;;;;32.00;14.68;;;4.20;99.90;;;;;;5101559;28;20035;-73
2022/11/27 09:13:35;;;;;;;36.75;14.93;;;4.30;99.90;;;;;;5102634;28;20032;-73
2022/11/27 09:16:07;;;;;;;39.15;15.02;;;4.30;99.90;;;;;;5102971;28;20024;-73
2022/11/27 09:18:33;;;;;;;40.65;16.83;;;4.30;99.90;;;;;;5100064;28;20064;-75
2022/11/27 09:21:01;;;;;;;34.50;15.27;;;4.30;99.90;;;;;;5102140;28;20434;-76
2022/11/27 09:23:27;;;;;;;39.10;15.07;;;4.30;99.90;;;;;;5100993;28;20056;-74
2022/11/27 09:25:53;;;;;;;40.22;14.93;;;4.20;99.90;;;;;;5099195;28;20046;-74
2022/11/27 09:28:19;;;;;;;37.38;15.13;;;4.10;99.90;;;;;;5100607;28;20028;-70
2022/11/27 09:30:45;;;;;;;36.33;15.85;;;4.10;99.90;;;;;;5101815;28;20052;-72
2022/11/27 09:33:11;;;;;;;34.85;15.38;;;4.00;99.90;;;;;;5096294;28;20089;-74
2022/11/27 09:35:37;;;;;;;41.25;16.08;;;4.00;99.90;;;;;;5097227;28;20083;-74
2022/11/27 09:38:04;;;;;;;37.40;15.60;;;4.00;99.90;;;;;;5103141;28;20039;-73
2022/11/27 09:40:31;;;;;;;39.42;15.48;;;4.00;99.90;;;;;;5097106;28;20044;-73
2022/11/27 09:43:08;;;;;;;38.55;15.60;;;4.00;99.90;;;;;;5101868;28;20024;-73
2022/11/27 09:45:42;;;;;;;37.50;16.02;;;4.10;99.90;;;;;;5099269;28;20393;-73
2022/11/27 09:48:14;;;;;;;36.13;17.02;;;4.10;99.90;;;;;;5102339;28;20016;-70
2022/11/27 09:50:49;;;;;;;41.47;16.17;;;4.20;99.90;;;;;;5099348;28;20032;-72
2022/11/27 09:53:38;;;;;;;42.72;16.67;;;4.20;99.90;;;;;;5096631;28;20044;-71
2022/11/27 09:56:09;;;;;;;40.08;17.40;;;4.20;99.90;;;;;;5099420;28;20050;-73
2022/11/27 09:58:40;;;;;;;36.65;16.33;;;4.30;99.90;;;;;;5102202;28;20028;-72
2022/11/27 10:01:19;;;;;;;42.70;16.52;;;4.40;99.90;;;;;;5100578;28;20028;-72
2022/11/27 10:03:45;;;;;;;41.92;18.25;;;4.50;99.90;;;;;;5098513;28;20064;-73
2022/11/27 10:06:20;;;;;;;47.15;17.65;;;4.40;99.90;;;;;;5097292;28;20032;-72
2022/11/27 10:08:55;;;;;;;44.08;17.50;;;4.50;99.90;;;;;;5095891;28;20025;-72
2022/11/27 10:11:47;;;;;;;38.38;15.02;;;4.50;99.90;;;;;;5101313;28;20024;-73
2022/11/27 10:14:27;;;;;;;38.88;15.18;;;4.60;99.90;;;;;;5100339;28;20064;-72
2022/11/27 10:17:27;;;;;;;33.30;14.85;;;4.70;99.90;;;;;;5102174;28;20119;-72
2022/11/27 10:20:21;;;;;;;36.63;14.88;;;4.70;99.90;;;;;;5101449;28;20028;-73
2022/11/27 10:23:03;;;;;;;35.55;14.85;;;4.70;99.90;;;;;;5099940;28;20036;-73
2022/11/27 10:25:46;;;;;;;35.83;15.32;;;4.70;99.90;;;;;;5101440;28;20062;-73
2022/11/27 10:28:35;;;;;;;36.13;15.00;;;4.80;99.90;;;;;;5099955;28;20031;-72
2022/11/27 10:31:12;;;;;;;33.38;15.20;;;4.80;99.90;;;;;;5099516;28;20035;-74
2022/11/27 10:33:45;;;;;;;40.97;16.20;;;4.80;99.90;;;;;;5101024;28;20028;-71
2022/11/27 10:36:26;;;;;;;31.20;14.77;;;4.90;99.90;;;;;;5099901;28;20074;-72
2022/11/27 10:38:55;;;;;;;34.50;14.45;;;4.90;99.90;;;;;;5097851;28;20131;-67
2022/11/27 10:41:29;;;;;;;33.78;13.98;;;5.00;99.90;;;;;;5100450;28;20036;-70
2022/11/27 10:43:58;;;;;;;34.42;14.90;;;5.10;99.90;;;;;;5099655;28;20091;-71
2022/11/27 10:46:28;;;;;;;33.97;13.50;;;5.10;99.90;;;;;;5098865;28;20559;-66
2022/11/27 10:48:54;;;;;;;31.38;14.10;;;5.20;99.90;;;;;;5101794;28;20024;-72
2022/11/27 10:51:35;;;;;;;29.95;13.93;;;5.20;99.90;;;;;;5100697;28;20028;-69
2022/11/27 10:54:04;;;;;;;35.13;13.63;;;5.30;99.90;;;;;;5102489;28;20099;-70
2022/11/27 10:56:48;;;;;;;32.13;14.65;;;5.30;99.90;;;;;;5101949;28;20016;-71
2022/11/27 11:00:13;;;;;;;33.17;13.97;;;5.30;99.90;;;;;;5099974;28;20060;-70
2022/11/27 11:02:40;;;;;;;40.45;13.43;;;5.40;99.90;;;;;;5029590;28;20344;-70
2022/11/27 11:05:25;;;;;;;35.30;13.77;;;5.40;99.90;;;;;;5030220;28;20037;-71
2022/11/27 11:08:25;;;;;;;38.50;14.18;;;5.50;99.90;;;;;;5071989;28;20040;-71
2022/11/27 11:11:09;;;;;;;30.83;12.63;;;5.50;99.90;;;;;;5064114;28;20056;-70
2022/11/27 11:13:47;;;;;;;33.58;13.95;;;5.50;99.90;;;;;;5100694;28;20016;-69
2022/11/27 11:16:17;;;;;;;30.80;14.93;;;5.50;99.90;;;;;;5101575;28;20035;-69
2022/11/27 11:18:42;;;;;;;34.30;13.65;;;5.60;99.90;;;;;;5100847;28;20024;-71
2022/11/27 11:21:25;;;;;;;35.65;14.05;;;5.60;99.90;;;;;;5097893;28;20079;-72
2022/11/27 11:23:58;;;;;;;32.40;14.35;;;5.60;99.90;;;;;;5101079;28;20044;-71
2022/11/27 11:26:37;;;;;;;35.90;13.50;;;5.60;99.90;;;;;;5099374;28;20324;-71
2022/11/27 11:29:17;;;;;;;31.90;14.25;;;5.70;99.90;;;;;;5100667;28;20407;-71
2022/11/27 11:31:43;;;;;;;32.22;14.18;;;5.80;99.90;;;;;;5100270;28;20042;-73
2022/11/27 11:34:27;;;;;;;35.75;13.68;;;5.80;99.90;;;;;;5097511;28;20473;-72
2022/11/27 11:37:17;;;;;;;28.40;12.90;;;5.90;99.90;;;;;;5100263;28;20044;-71
2022/11/27 11:39:59;;;;;;;33.83;14.48;;;5.80;99.90;;;;;;5099099;28;20100;-68
2022/11/27 11:42:31;;;;;;;32.60;14.13;;;5.90;99.90;;;;;;5098968;28;20039;-69
2022/11/27 11:45:12;;;;;;;27.77;11.82;;;5.90;99.90;;;;;;5097238;28;20036;-72
2022/11/27 11:47:50;;;;;;;32.42;13.15;;;5.90;99.90;;;;;;5100541;28;20055;-70
2022/11/27 11:50:31;;;;;;;30.30;14.20;;;5.90;99.90;;;;;;5098809;28;20083;-72
2022/11/27 11:53:21;;;;;;;30.52;13.52;;;5.90;99.90;;;;;;5098773;28;20028;-68
2022/11/27 11:56:34;;;;;;;31.30;12.43;;;6.00;99.90;;;;;;5101299;28;20119;-69
2022/11/27 11:59:02;;;;;;;30.75;14.13;;;6.00;99.90;;;;;;5097821;28;20016;-69
2022/11/27 12:01:58;;;;;;;33.10;14.25;;;6.00;99.90;;;;;;5098511;28;20380;-69
2022/11/27 12:04:50;;;;;;;33.90;13.93;;;6.00;99.90;;;;;;5097224;28;20024;-69
2022/11/27 12:07:49;;;;;;;36.92;14.35;;;6.00;99.90;;;;;;5097717;28;20024;-69
2022/11/27 12:10:20;;;;;;;43.28;13.27;;;6.00;99.90;;;;;;5094732;28;20472;-70
2022/11/27 12:13:19;;;;;;;36.42;13.45;;;6.10;99.90;;;;;;5100366;28;20031;-71
2022/11/27 12:16:39;;;;;;;30.85;12.82;;;6.00;99.90;;;;;;5099394;28;20024;-68
2022/11/27 12:19:23;;;;;;;32.15;13.18;;;6.10;99.90;;;;;;5077745;28;20139;-69
2022/11/27 12:22:06;;;;;;;36.78;12.93;;;6.00;99.90;;;;;;5079935;28;20036;-70
2022/11/27 12:24:55;;;;;;;30.17;13.50;;;6.10;99.90;;;;;;5097575;28;20044;-69
2022/11/27 12:27:59;;;;;;;32.97;13.45;;;6.10;99.90;;;;;;5080094;28;20466;-69
2022/11/27 12:30:35;;;;;;;28.60;12.65;;;6.10;99.90;;;;;;5094564;28;20054;-69
2022/11/27 12:33:26;;;;;;;24.33;12.15;;;6.10;99.90;;;;;;5104063;28;20020;-70
2022/11/27 12:36:06;;;;;;;34.03;14.52;;;6.10;99.90;;;;;;5100768;28;20028;-68
2022/11/27 12:38:34;;;;;;;28.48;12.55;;;6.20;99.90;;;;;;5101330;28;20028;-68
2022/11/27 12:41:00;;;;;;;34.88;14.52;;;6.20;99.90;;;;;;5097681;28;20035;-70
2022/11/27 12:43:37;;;;;;;29.80;13.23;;;6.30;99.90;;;;;;5099944;28;20036;-69
2022/11/27 12:46:13;;;;;;;25.23;12.52;;;6.20;99.90;;;;;;5099750;28;20024;-69
2022/11/27 12:48:48;;;;;;;32.10;13.90;;;6.10;99.90;;;;;;5098691;28;20035;-69
2022/11/27 12:51:28;;;;;;;41.30;14.23;;;6.20;99.90;;;;;;5099324;28;20068;-69
2022/11/27 12:54:04;;;;;;;31.30;13.23;;;6.20;99.90;;;;;;5101915;28;20032;-69
2022/11/27 12:56:31;;;;;;;27.63;13.88;;;6.20;99.90;;;;;;5100788;28;20017;-70
2022/11/27 12:59:19;;;;;;;35.55;14.45;;;6.20;99.90;;;;;;5098632;28;20084;-71
2022/11/27 13:01:58;;;;;;;29.30;13.68;;;6.20;99.90;;;;;;5104083;28;20028;-69